createdAt,value
2018-12-09T00:00:02.808Z,7.78
2018-12-09T00:02:30.533Z,7.20
2018-12-09T00:04:58.177Z,7.50
2018-12-09T00:07:26.034Z,7.47
2018-12-09T00:09:54.278Z,7.37
2018-12-09T00:12:21.837Z,6.60
2018-12-09T00:14:50.682Z,7.08
2018-12-09T00:17:18.754Z,6.00
2018-12-09T00:19:46.707Z,5.85
2018-12-09T00:22:15.155Z,6.40
2018-12-09T00:24:42.954Z,5.50
2018-12-09T00:27:10.823Z,4.90
2018-12-09T00:29:38.427Z,4.22
2018-12-09T00:32:06.789Z,5.00
2018-12-09T00:34:34.839Z,4.85
2018-12-09T00:37:02.827Z,4.50
2018-12-09T00:39:30.989Z,4.10
2018-12-09T00:41:58.855Z,4.00
2018-12-09T00:44:26.640Z,4.20
2018-12-09T00:46:54.574Z,3.60
2018-12-09T00:49:22.497Z,3.90
2018-12-09T00:51:49.934Z,3.47
2018-12-09T00:54:17.474Z,3.40
2018-12-09T00:56:45.322Z,3.20
2018-12-09T00:59:13.954Z,3.62
2018-12-09T01:01:41.401Z,3.20
2018-12-09T01:04:09.430Z,3.27
2018-12-09T01:06:37.105Z,3.10
2018-12-09T01:09:05.382Z,2.80
2018-12-09T01:11:32.860Z,3.10
2018-12-09T01:14:00.712Z,2.90
2018-12-09T01:16:28.264Z,3.10
2018-12-09T01:18:56.031Z,3.12
2018-12-09T01:21:23.907Z,2.80
2018-12-09T01:23:51.755Z,3.00
2018-12-09T01:26:20.077Z,2.70
2018-12-09T01:28:47.670Z,3.00
2018-12-09T01:31:16.499Z,2.85
2018-12-09T01:33:44.260Z,3.50
2018-12-09T01:36:12.126Z,2.63
2018-12-09T01:38:40.406Z,3.30
2018-12-09T01:41:08.701Z,3.20
2018-12-09T01:43:37.760Z,2.95
2018-12-09T01:46:06.013Z,3.30
2018-12-09T01:48:34.026Z,4.12
2018-12-09T01:51:03.017Z,2.92
2018-12-09T01:54:37.014Z,3.10
2018-12-09T01:57:04.939Z,2.90
2018-12-09T01:59:32.863Z,2.92
2018-12-09T02:02:00.840Z,3.00
2018-12-09T02:04:28.301Z,2.98
2018-12-09T02:06:55.891Z,2.60
2018-12-09T02:09:23.930Z,3.20
2018-12-09T02:11:51.495Z,2.40
2018-12-09T02:14:20.013Z,2.60
2018-12-09T02:16:47.527Z,2.22
2018-12-09T02:19:17.705Z,2.20
2018-12-09T02:21:45.761Z,2.30
2018-12-09T02:24:13.799Z,2.60
2018-12-09T02:26:41.361Z,2.30
2018-12-09T02:29:09.467Z,2.20
2018-12-09T02:31:37.290Z,1.98
2018-12-09T02:34:04.987Z,2.22
2018-12-09T02:36:33.226Z,2.27
2018-12-09T02:39:01.622Z,2.58
2018-12-09T02:41:29.202Z,2.60
2018-12-09T02:43:56.932Z,2.60
2018-12-09T02:46:24.742Z,2.50
2018-12-09T02:48:52.508Z,1.90
2018-12-09T02:51:20.050Z,1.85
2018-12-09T02:53:47.760Z,1.40
2018-12-09T02:56:15.556Z,1.60
2018-12-09T02:58:43.775Z,1.30
2018-12-09T03:01:11.831Z,1.40
2018-12-09T03:03:39.393Z,1.10
2018-12-09T03:06:06.837Z,1.20
2018-12-09T03:08:34.369Z,1.30
2018-12-09T03:11:02.659Z,1.30
2018-12-09T03:13:30.538Z,1.40
2018-12-09T03:15:58.711Z,1.50
2018-12-09T03:18:26.982Z,1.35
2018-12-09T03:20:54.573Z,0.83
2018-12-09T03:23:22.578Z,0.70
2018-12-09T03:25:50.617Z,0.60
2018-12-09T03:28:19.631Z,0.60
2018-12-09T03:30:47.753Z,0.50
2018-12-09T03:33:15.788Z,0.55
2018-12-09T03:35:44.158Z,0.50
2018-12-09T03:38:12.302Z,0.60
2018-12-09T03:40:40.136Z,0.60
2018-12-09T03:43:07.716Z,0.70
2018-12-09T03:45:35.569Z,0.70
2018-12-09T03:48:03.226Z,0.50
2018-12-09T03:50:30.917Z,0.60
2018-12-09T03:52:58.449Z,0.50
2018-12-09T03:55:26.327Z,0.60
2018-12-09T03:57:53.975Z,0.60
2018-12-09T04:00:22.112Z,0.70
2018-12-09T04:02:50.316Z,0.80
2018-12-09T04:05:18.411Z,0.80
2018-12-09T04:07:46.590Z,0.80
2018-12-09T04:10:14.032Z,1.00
2018-12-09T04:12:41.633Z,1.00
2018-12-09T04:15:09.359Z,1.17
2018-12-09T04:17:37.039Z,1.00
2018-12-09T04:20:04.980Z,1.20
2018-12-09T04:22:33.150Z,1.30
2018-12-09T04:25:00.939Z,1.30
2018-12-09T04:27:29.082Z,1.60
2018-12-09T04:29:56.966Z,2.10
2018-12-09T04:32:24.708Z,2.10
2018-12-09T04:34:52.828Z,1.30
2018-12-09T04:37:20.221Z,1.25
2018-12-09T04:39:48.162Z,1.20
2018-12-09T04:42:16.161Z,1.40
2018-12-09T04:44:44.185Z,1.20
2018-12-09T04:47:12.986Z,1.30
2018-12-09T04:49:41.641Z,1.10
2018-12-09T04:52:09.283Z,1.27
2018-12-09T04:54:37.996Z,1.10
2018-12-09T04:57:06.246Z,1.50
2018-12-09T04:59:35.459Z,1.30
2018-12-09T05:02:03.259Z,1.10
2018-12-09T05:04:30.723Z,1.25
2018-12-09T05:06:59.395Z,1.20
2018-12-09T05:09:27.357Z,1.20
2018-12-09T05:11:55.089Z,1.20
2018-12-09T05:14:22.705Z,1.25
2018-12-09T05:16:51.285Z,1.35
2018-12-09T05:19:19.458Z,0.90
2018-12-09T05:21:47.209Z,1.72
2018-12-09T05:24:14.601Z,4.50
2018-12-09T05:26:42.173Z,1.30
2018-12-09T05:29:10.161Z,1.00
2018-12-09T05:31:38.174Z,0.90
2018-12-09T05:34:06.581Z,0.90
2018-12-09T05:36:34.202Z,0.90
2018-12-09T05:39:01.865Z,1.07
2018-12-09T05:41:29.600Z,1.00
2018-12-09T05:43:57.093Z,1.05
2018-12-09T05:46:25.532Z,1.30
2018-12-09T05:48:53.546Z,1.00
2018-12-09T05:51:22.276Z,1.00
2018-12-09T05:53:49.856Z,1.00
2018-12-09T05:56:18.917Z,1.02
2018-12-09T05:58:46.872Z,1.00
2018-12-09T06:01:14.645Z,1.00
2018-12-09T06:03:43.204Z,1.00
2018-12-09T06:06:11.549Z,0.90
2018-12-09T06:08:39.257Z,1.17
2018-12-09T06:11:07.938Z,3.60
2018-12-09T06:13:36.305Z,1.40
2018-12-09T06:16:04.683Z,1.10
2018-12-09T06:18:33.125Z,1.00
2018-12-09T06:21:00.753Z,0.90
2018-12-09T06:23:28.594Z,1.00
2018-12-09T06:25:57.280Z,1.23
2018-12-09T06:28:25.542Z,0.90
2018-12-09T06:30:53.494Z,1.00
2018-12-09T06:33:21.264Z,1.13
2018-12-09T06:35:49.894Z,0.90
2018-12-09T06:38:17.680Z,0.90
2018-12-09T06:40:45.221Z,3.62
2018-12-09T06:43:12.785Z,1.40
2018-12-09T06:45:40.242Z,1.20
2018-12-09T06:48:07.641Z,1.00
2018-12-09T06:50:35.336Z,1.10
2018-12-09T06:53:04.714Z,1.10
2018-12-09T06:55:33.245Z,0.80
2018-12-09T06:58:01.599Z,0.85
2018-12-09T07:00:30.710Z,0.70
2018-12-09T07:02:59.303Z,2.58
2018-12-09T07:05:27.495Z,4.15
2018-12-09T07:07:55.535Z,0.85
2018-12-09T07:10:23.676Z,0.70
2018-12-09T07:12:51.587Z,0.98
2018-12-09T07:15:19.354Z,0.70
2018-12-09T07:17:48.040Z,0.90
2018-12-09T07:20:15.618Z,1.10
2018-12-09T07:22:43.293Z,1.10
2018-12-09T07:25:10.834Z,0.90
2018-12-09T07:27:38.398Z,1.10
2018-12-09T07:30:07.087Z,0.90
2018-12-09T07:32:35.134Z,1.10
2018-12-09T07:35:03.002Z,1.10
2018-12-09T07:37:30.759Z,1.60
2018-12-09T07:39:58.872Z,1.37
2018-12-09T07:42:26.911Z,1.62
2018-12-09T07:44:54.327Z,4.85
2018-12-09T07:47:22.692Z,2.50
2018-12-09T07:49:50.315Z,1.90
2018-12-09T07:52:18.471Z,2.17
2018-12-09T07:54:46.383Z,2.10
2018-12-09T07:57:14.733Z,1.80
2018-12-09T07:59:42.532Z,1.90
2018-12-09T08:02:10.098Z,2.10
2018-12-09T08:04:38.923Z,2.10
2018-12-09T08:07:06.929Z,2.00
2018-12-09T08:09:34.890Z,2.10
2018-12-09T08:12:03.909Z,2.97
2018-12-09T08:14:32.159Z,2.47
2018-12-09T08:16:59.653Z,2.52
2018-12-09T08:19:27.342Z,2.62
2018-12-09T08:21:54.760Z,2.90
2018-12-09T08:24:22.346Z,2.60
2018-12-09T08:26:50.168Z,2.60
2018-12-09T08:29:18.082Z,2.67
2018-12-09T08:31:47.127Z,2.60
2018-12-09T08:34:14.653Z,2.90
2018-12-09T08:36:43.378Z,3.00
2018-12-09T08:39:11.192Z,2.55
2018-12-09T08:41:39.010Z,2.73
2018-12-09T08:44:06.970Z,2.80
2018-12-09T08:46:34.963Z,2.80
2018-12-09T08:49:02.410Z,2.62
2018-12-09T08:51:30.946Z,2.65
2018-12-09T08:53:58.743Z,2.70
2018-12-09T08:56:26.206Z,2.42
2018-12-09T08:58:53.738Z,3.67
2018-12-09T09:01:21.865Z,4.90
2018-12-09T09:03:49.332Z,2.70
2018-12-09T09:06:17.152Z,3.00
2018-12-09T09:08:44.817Z,3.60
2018-12-09T09:11:13.106Z,2.90
2018-12-09T09:13:41.709Z,5.80
2018-12-09T09:16:09.255Z,2.80
2018-12-09T09:18:36.918Z,3.08
2018-12-09T09:21:04.946Z,2.70
2018-12-09T09:23:32.636Z,2.90
2018-12-09T09:26:00.243Z,2.60
2018-12-09T09:28:27.832Z,2.40
2018-12-09T09:30:56.042Z,2.60
2018-12-09T09:33:24.474Z,2.40
2018-12-09T09:35:53.124Z,3.42
2018-12-09T09:38:20.635Z,3.17
2018-12-09T09:40:48.642Z,3.27
2018-12-09T09:43:16.467Z,2.70
2018-12-09T09:45:43.893Z,2.30
2018-12-09T09:48:11.792Z,2.40
2018-12-09T09:50:39.204Z,2.20
2018-12-09T09:53:07.039Z,2.70
2018-12-09T09:55:35.238Z,2.50
2018-12-09T09:58:03.026Z,2.50
2018-12-09T10:00:31.168Z,4.57
2018-12-09T10:02:58.942Z,2.43
2018-12-09T10:05:26.715Z,2.72
2018-12-09T10:07:54.470Z,2.30
2018-12-09T10:10:22.224Z,2.45
2018-12-09T10:12:49.674Z,2.20
2018-12-09T10:15:17.422Z,2.17
2018-12-09T10:17:45.190Z,2.47
2018-12-09T10:20:12.652Z,3.30
2018-12-09T10:22:40.401Z,2.30
2018-12-09T10:25:07.930Z,1.90
2018-12-09T10:27:35.416Z,1.80
2018-12-09T10:30:02.996Z,1.80
2018-12-09T10:32:30.394Z,1.57
2018-12-09T10:34:57.834Z,1.65
2018-12-09T10:37:25.320Z,1.60
2018-12-09T10:39:52.743Z,1.60
2018-12-09T10:42:20.818Z,1.90
2018-12-09T10:44:48.489Z,1.80
2018-12-09T10:47:15.969Z,1.80
2018-12-09T10:49:44.173Z,1.90
2018-12-09T10:52:11.649Z,2.15
2018-12-09T10:54:39.438Z,2.00
2018-12-09T10:57:07.108Z,1.70
2018-12-09T10:59:34.659Z,2.58
2018-12-09T11:02:07.561Z,1.42
2018-12-09T11:04:34.998Z,1.00
2018-12-09T11:07:02.675Z,0.98
2018-12-09T11:09:30.431Z,1.40
2018-12-09T11:11:58.603Z,0.85
2018-12-09T11:14:26.395Z,0.80
2018-12-09T11:16:53.850Z,0.70
2018-12-09T11:19:21.598Z,0.70
2018-12-09T11:21:49.557Z,0.80
2018-12-09T11:24:17.069Z,0.70
2018-12-09T11:26:45.195Z,1.42
2018-12-09T11:29:12.711Z,0.90
2018-12-09T11:31:40.618Z,1.00
2018-12-09T11:34:08.142Z,1.00
2018-12-09T11:36:36.151Z,0.70
2018-12-09T11:39:05.856Z,1.00
2018-12-09T11:41:33.647Z,1.20
2018-12-09T11:44:01.631Z,0.70
2018-12-09T11:46:29.023Z,0.90
2018-12-09T11:48:56.833Z,0.80
2018-12-09T11:51:24.682Z,0.72
2018-12-09T11:53:52.214Z,0.70
2018-12-09T11:56:19.618Z,1.00
2018-12-09T11:58:48.071Z,0.70
2018-12-09T12:01:16.387Z,0.70
2018-12-09T12:03:44.495Z,0.60
2018-12-09T12:06:12.502Z,1.20
2018-12-09T12:08:40.194Z,0.72
2018-12-09T12:11:07.794Z,0.90
2018-12-09T12:13:35.348Z,0.78
2018-12-09T12:16:03.447Z,0.90
2018-12-09T12:18:31.699Z,0.80
2018-12-09T12:20:59.606Z,0.80
2018-12-09T12:23:27.476Z,0.90
2018-12-09T12:25:55.758Z,0.80
2018-12-09T12:28:24.079Z,0.70
2018-12-09T12:30:51.576Z,0.70
2018-12-09T12:33:19.075Z,0.70
2018-12-09T12:35:46.699Z,0.80
2018-12-09T12:38:14.975Z,0.80
2018-12-09T12:40:43.258Z,0.70
2018-12-09T12:43:11.643Z,0.70
2018-12-09T12:45:39.975Z,0.70
2018-12-09T12:48:07.396Z,1.20
2018-12-09T12:50:35.460Z,1.20
2018-12-09T12:53:03.415Z,3.60
2018-12-09T12:55:32.168Z,2.00
2018-12-09T12:57:59.706Z,1.00
2018-12-09T13:00:27.391Z,0.90
2018-12-09T13:02:55.705Z,1.00
2018-12-09T13:05:24.640Z,0.80
2018-12-09T13:07:52.560Z,1.00
2018-12-09T13:10:20.534Z,0.90
2018-12-09T13:12:48.448Z,0.90
2018-12-09T13:15:16.512Z,1.00
2018-12-09T13:17:44.406Z,1.00
2018-12-09T13:20:12.515Z,1.22
2018-12-09T13:22:40.226Z,0.90
2018-12-09T13:25:08.095Z,1.10
2018-12-09T13:27:37.490Z,1.90
2018-12-09T13:30:05.859Z,1.10
2018-12-09T13:32:33.800Z,1.00
2018-12-09T13:35:02.141Z,0.90
2018-12-09T13:37:29.534Z,1.00
2018-12-09T13:39:58.335Z,0.98
2018-12-09T13:42:25.984Z,1.07
2018-12-09T13:44:54.095Z,0.82
2018-12-09T13:47:21.713Z,1.30
2018-12-09T13:49:50.038Z,1.10
2018-12-09T13:52:18.058Z,0.90
2018-12-09T13:54:46.409Z,1.00
2018-12-09T13:57:14.306Z,1.00
2018-12-09T13:59:42.065Z,1.10
2018-12-09T14:02:09.794Z,1.10
2018-12-09T14:04:37.338Z,1.32
2018-12-09T14:07:04.865Z,1.30
2018-12-09T14:09:32.732Z,0.80
2018-12-09T14:12:00.787Z,1.27
2018-12-09T14:14:28.194Z,1.10
2018-12-09T14:16:56.877Z,0.90
2018-12-09T14:19:25.084Z,0.93
2018-12-09T14:21:53.052Z,0.90
2018-12-09T14:24:20.740Z,1.30
2018-12-09T14:26:48.419Z,1.00
2018-12-09T14:29:17.103Z,1.10
2018-12-09T14:31:45.341Z,1.10
2018-12-09T14:34:13.180Z,1.10
2018-12-09T14:36:40.872Z,1.20
2018-12-09T14:39:08.567Z,1.10
2018-12-09T14:41:36.425Z,1.30
2018-12-09T14:44:03.925Z,1.00
2018-12-09T14:46:31.725Z,0.98
2018-12-09T14:48:59.419Z,1.25
2018-12-09T14:51:26.949Z,1.00
2018-12-09T14:53:54.814Z,1.20
2018-12-09T14:56:22.821Z,1.10
2018-12-09T14:58:50.787Z,1.00
2018-12-09T15:01:18.550Z,1.20
2018-12-09T15:03:46.532Z,1.07
2018-12-09T15:06:14.319Z,1.20
2018-12-09T15:08:41.732Z,1.30
2018-12-09T15:11:09.272Z,1.02
2018-12-09T15:13:37.522Z,1.10
2018-12-09T15:16:05.971Z,1.50
2018-12-09T15:18:33.426Z,1.80
2018-12-09T15:21:01.124Z,1.60
2018-12-09T15:23:28.583Z,1.50
2018-12-09T15:25:56.108Z,1.40
2018-12-09T15:28:23.612Z,1.42
2018-12-09T15:30:51.338Z,1.60
2018-12-09T15:33:19.096Z,3.30
2018-12-09T15:35:47.204Z,2.12
2018-12-09T15:38:15.240Z,1.80
2018-12-09T15:40:43.032Z,1.60
2018-12-09T15:43:10.822Z,1.80
2018-12-09T15:45:38.279Z,1.40
2018-12-09T15:48:06.314Z,1.30
2018-12-09T15:50:34.060Z,1.60
2018-12-09T15:53:02.136Z,1.77
2018-12-09T15:55:29.574Z,1.80
2018-12-09T15:57:57.361Z,2.00
2018-12-09T16:00:29.098Z,1.90
2018-12-09T16:02:56.535Z,1.50
2018-12-09T16:05:24.321Z,1.70
2018-12-09T16:07:51.940Z,2.40
2018-12-09T16:10:19.527Z,1.85
2018-12-09T16:12:47.559Z,1.50
2018-12-09T16:15:15.805Z,1.72
2018-12-09T16:17:44.809Z,2.10
2018-12-09T16:20:13.179Z,1.80
2018-12-09T16:22:42.525Z,1.95
2018-12-09T16:25:11.571Z,1.70
2018-12-09T16:27:40.020Z,2.30
2018-12-09T16:30:09.085Z,2.00
2018-12-09T16:32:37.504Z,2.65
2018-12-09T16:35:06.923Z,2.67
2018-12-09T16:37:35.492Z,2.12
2018-12-09T16:40:05.270Z,2.40
2018-12-09T16:42:33.910Z,2.30
2018-12-09T16:45:02.473Z,2.25
2018-12-09T16:47:30.947Z,2.40
2018-12-09T16:50:00.351Z,2.25
2018-12-09T16:52:28.839Z,2.40
2018-12-09T16:54:57.116Z,2.77
2018-12-09T16:57:25.652Z,2.80
2018-12-09T16:59:53.279Z,3.02
2018-12-09T17:02:21.639Z,3.80
2018-12-09T17:04:49.538Z,3.02
2018-12-09T17:07:19.764Z,3.00
2018-12-09T17:09:51.822Z,2.80
2018-12-09T17:12:20.878Z,3.10
2018-12-09T17:14:48.452Z,3.85
2018-12-09T17:17:16.375Z,3.00
2018-12-09T17:19:45.042Z,3.10
2018-12-09T17:22:12.825Z,3.13
2018-12-09T17:24:40.446Z,3.45
2018-12-09T17:27:10.270Z,3.12
2018-12-09T17:29:40.435Z,3.90
2018-12-09T17:32:08.190Z,4.53
2018-12-09T17:34:36.461Z,3.90
2018-12-09T17:37:03.983Z,3.62
2018-12-09T17:39:31.866Z,3.90
2018-12-09T17:41:59.411Z,3.25
2018-12-09T17:44:27.609Z,3.10
2018-12-09T17:46:55.670Z,3.50
2018-12-09T17:49:23.338Z,3.45
2018-12-09T17:51:51.511Z,3.75
2018-12-09T17:54:19.439Z,6.10
2018-12-09T17:56:47.298Z,3.80
2018-12-09T17:59:15.465Z,4.05
2018-12-09T18:01:44.420Z,3.72
2018-12-09T18:04:12.343Z,4.10
2018-12-09T18:06:44.093Z,3.57
2018-12-09T18:09:18.763Z,3.65
2018-12-09T18:11:46.492Z,3.02
2018-12-09T18:14:14.393Z,3.10
2018-12-09T18:16:42.466Z,3.52
2018-12-09T18:19:11.988Z,3.70
2018-12-09T18:21:39.730Z,3.60
2018-12-09T18:24:07.184Z,3.73
2018-12-09T18:26:35.648Z,3.62
2018-12-09T18:29:04.657Z,4.10
2018-12-09T18:31:33.232Z,3.52
2018-12-09T18:34:01.919Z,3.52
2018-12-09T18:36:30.490Z,4.17
2018-12-09T18:38:59.347Z,4.05
2018-12-09T18:41:26.782Z,4.28
2018-12-09T18:43:54.259Z,4.40
2018-12-09T18:46:22.061Z,3.92
2018-12-09T18:48:50.006Z,4.27
2018-12-09T18:51:17.643Z,3.40
2018-12-09T18:53:45.254Z,4.80
2018-12-09T18:56:13.362Z,4.50
2018-12-09T18:58:41.194Z,4.40
2018-12-09T19:01:09.887Z,4.08
2018-12-09T19:03:38.716Z,4.15
2018-12-09T19:06:06.432Z,4.10
2018-12-09T19:08:34.199Z,3.90
2018-12-09T19:11:02.750Z,4.25
2018-12-09T19:13:30.597Z,3.77
2018-12-09T19:15:58.691Z,3.95
2018-12-09T19:18:26.385Z,4.10
2018-12-09T19:20:54.983Z,4.70
2018-12-09T19:23:22.394Z,4.30
2018-12-09T19:25:50.336Z,4.60
2018-12-09T19:28:18.655Z,3.35
2018-12-09T19:30:48.385Z,3.98
2018-12-09T19:33:16.014Z,4.47
2018-12-09T19:35:43.943Z,3.90
2018-12-09T19:38:11.778Z,4.40
2018-12-09T19:40:39.442Z,5.25
2018-12-09T19:43:06.914Z,6.45
2018-12-09T19:45:34.407Z,5.00
2018-12-09T19:48:01.997Z,4.10
2018-12-09T19:50:29.445Z,4.30
2018-12-09T19:52:57.771Z,4.35
2018-12-09T19:55:25.308Z,3.90
2018-12-09T19:57:52.826Z,3.77
2018-12-09T20:00:20.277Z,3.33
2018-12-09T20:02:47.935Z,4.03
2018-12-09T20:05:15.615Z,3.50
2018-12-09T20:07:43.567Z,3.20
2018-12-09T20:10:11.228Z,3.80
2018-12-09T20:12:38.964Z,3.30
2018-12-09T20:15:07.485Z,4.00
2018-12-09T20:17:34.963Z,3.47
2018-12-09T20:20:02.577Z,3.20
2018-12-09T20:22:30.167Z,2.90
2018-12-09T20:24:57.595Z,3.27
2018-12-09T20:27:25.042Z,3.25
2018-12-09T20:29:52.467Z,3.70
2018-12-09T20:32:20.819Z,3.90
2018-12-09T20:34:48.671Z,3.80
2018-12-09T20:37:16.180Z,4.10
2018-12-09T20:39:44.143Z,5.42
2018-12-09T20:42:11.916Z,4.03
2018-12-09T20:44:39.402Z,3.70
2018-12-09T20:47:06.893Z,3.15
2018-12-09T20:49:34.623Z,3.60
2018-12-09T20:52:02.250Z,3.40
2018-12-09T20:54:29.667Z,3.60
2018-12-09T20:56:57.402Z,3.70
2018-12-09T20:59:25.102Z,3.77
2018-12-09T21:01:53.211Z,3.40
2018-12-09T21:04:20.829Z,3.70
2018-12-09T21:06:49.107Z,5.58
2018-12-09T21:09:17.788Z,5.90
2018-12-09T21:11:46.054Z,6.87
2018-12-09T21:14:14.746Z,4.03
2018-12-09T21:16:42.272Z,3.35
2018-12-09T21:19:10.063Z,3.30
2018-12-09T21:21:38.658Z,3.63
2018-12-09T21:24:06.133Z,3.75
2018-12-09T21:26:33.847Z,4.05
2018-12-09T21:29:01.623Z,3.98
2018-12-09T21:31:29.576Z,3.65
2018-12-09T21:33:57.383Z,3.47
2018-12-09T21:36:25.640Z,4.85
2018-12-09T21:38:53.066Z,4.80
2018-12-09T21:41:20.741Z,5.37
2018-12-09T21:43:48.430Z,3.90
2018-12-09T21:46:16.417Z,3.65
2018-12-09T21:48:44.597Z,3.40
2018-12-09T21:51:12.355Z,3.60
2018-12-09T21:53:40.416Z,3.30
2018-12-09T21:56:08.774Z,5.08
2018-12-09T21:58:36.562Z,3.45
2018-12-09T22:01:04.899Z,3.80
2018-12-09T22:03:32.659Z,4.20
2018-12-09T22:06:00.776Z,5.83
2018-12-09T22:08:29.075Z,4.83
2018-12-09T22:10:56.815Z,3.60
2018-12-09T22:13:24.554Z,4.33
2018-12-09T22:15:52.226Z,3.95
2018-12-09T22:18:20.390Z,4.30
2018-12-09T22:20:48.359Z,4.30
2018-12-09T22:23:16.867Z,3.87
2018-12-09T22:25:44.434Z,3.55
2018-12-09T22:28:12.265Z,3.70
2018-12-09T22:30:40.603Z,3.40
2018-12-09T22:33:08.264Z,3.30
2018-12-09T22:35:36.103Z,3.58
2018-12-09T22:38:04.446Z,3.17
2018-12-09T22:40:32.015Z,3.33
2018-12-09T22:42:59.719Z,2.50
2018-12-09T22:45:27.482Z,2.85
2018-12-09T22:47:55.309Z,2.98
2018-12-09T22:50:23.218Z,2.90
2018-12-09T22:52:51.285Z,3.42
2018-12-09T22:55:18.943Z,2.70
2018-12-09T22:57:46.834Z,3.50
2018-12-09T23:00:21.606Z,3.08
2018-12-09T23:03:08.077Z,3.05
2018-12-09T23:05:35.920Z,3.20
2018-12-09T23:08:03.738Z,2.42
2018-12-09T23:10:31.576Z,2.75
2018-12-09T23:12:59.121Z,2.80
2018-12-09T23:15:26.559Z,3.25
2018-12-09T23:17:54.870Z,3.25
2018-12-09T23:20:22.453Z,3.08
2018-12-09T23:22:50.776Z,3.80
2018-12-09T23:25:19.062Z,3.33
2018-12-09T23:27:47.051Z,5.40
2018-12-09T23:30:14.658Z,4.80
2018-12-09T23:32:42.311Z,3.95
2018-12-09T23:35:09.903Z,3.52
2018-12-09T23:37:37.346Z,3.30
2018-12-09T23:40:06.263Z,3.45
2018-12-09T23:42:34.124Z,3.20
2018-12-09T23:45:02.045Z,3.17
2018-12-09T23:47:30.235Z,3.00
2018-12-09T23:49:58.131Z,3.40
2018-12-09T23:52:26.119Z,3.40
2018-12-09T23:54:53.766Z,3.73
2018-12-09T23:57:21.378Z,3.00
2018-12-09T23:59:50.170Z,2.90
